Time;durP1;ratioP1;P1;durP2;ratioP2;P2;SDS_P1;SDS_P2;PMS_P1;PMS_P2;Temp;Humidity;BMP_temperature;BMP_pressure;BME280_temperature;BME280_humidity;BME280_pressure;Samples;Min_cycle;Max_cycle;Signal;HPM_P1;HPM_P2
2023/08/04 00:01:02;;;;;;;16.55;6.72;;;;;;;14.21;100.00;100921.88;5315570;28;20023;-68
2023/08/04 00:03:33;;;;;;;12.65;6.80;;;;;;;14.16;100.00;100908.06;5313732;28;20023;-67
2023/08/04 00:06:09;;;;;;;11.52;6.50;;;;;;;14.27;100.00;100907.94;5313417;27;20083;-68
2023/08/04 00:08:41;;;;;;;16.17;7.10;;;;;;;14.20;100.00;100914.84;5325070;27;20051;-67
2023/08/04 00:11:12;;;;;;;15.10;7.57;;;;;;;14.17;100.00;100912.41;5320508;28;20043;-67
2023/08/04 00:13:43;;;;;;;17.10;7.95;;;;;;;14.22;100.00;100920.91;5311627;28;20026;-67
2023/08/04 00:16:14;;;;;;;16.05;7.70;;;;;;;14.17;100.00;100924.03;5322857;28;20058;-68
2023/08/04 00:18:46;;;;;;;14.63;7.05;;;;;;;14.10;100.00;100921.03;5318050;28;20024;-68
2023/08/04 00:21:17;;;;;;;14.25;7.82;;;;;;;14.20;100.00;100921.03;5320820;28;20473;-68
2023/08/04 00:23:48;;;;;;;14.40;7.50;;;;;;;14.04;100.00;100926.13;5317522;28;20119;-68
2023/08/04 00:26:20;;;;;;;14.23;7.07;;;;;;;14.16;100.00;100930.38;5321985;28;20020;-67
2023/08/04 00:28:51;;;;;;;15.68;7.20;;;;;;;14.57;100.00;100932.97;5319576;28;20035;-68
2023/08/04 00:31:22;;;;;;;16.50;7.40;;;;;;;14.45;100.00;100925.00;5321571;28;20043;-67
2023/08/04 00:33:55;;;;;;;14.52;6.85;;;;;;;14.35;100.00;100921.50;5316601;28;20028;-67
2023/08/04 00:36:26;;;;;;;13.68;7.40;;;;;;;14.23;100.00;100933.31;5326052;27;20046;-67
2023/08/04 00:38:57;;;;;;;19.77;7.60;;;;;;;14.27;100.00;100932.91;5318059;28;20031;-68
2023/08/04 00:41:29;;;;;;;15.63;8.38;;;;;;;14.15;100.00;100938.53;5321677;28;20676;-68
2023/08/04 00:44:00;;;;;;;15.77;7.20;;;;;;;14.24;100.00;100938.56;5320769;28;20022;-67
2023/08/04 00:46:32;;;;;;;17.30;8.27;;;;;;;14.15;100.00;100942.06;5315995;28;20019;-67
2023/08/04 00:49:06;;;;;;;15.48;8.05;;;;;;;14.11;100.00;100937.97;5313181;28;20111;-67
2023/08/04 00:51:38;;;;;;;14.45;7.70;;;;;;;14.22;100.00;100943.22;5303449;28;20474;-67
2023/08/04 00:54:09;;;;;;;14.10;8.07;;;;;;;13.99;100.00;100945.28;5312571;28;20023;-67
2023/08/04 00:56:41;;;;;;;16.10;8.00;;;;;;;14.13;100.00;100946.72;5321251;28;20118;-67
2023/08/04 00:59:13;;;;;;;17.30;9.00;;;;;;;14.24;100.00;100948.44;5319199;28;20031;-68
2023/08/04 01:01:44;;;;;;;19.90;8.35;;;;;;;14.22;100.00;100945.06;5309012;28;20448;-67
2023/08/04 01:04:18;;;;;;;18.00;8.27;;;;;;;14.09;100.00;100946.19;5318504;28;20275;-67
2023/08/04 01:07:22;;;;;;;14.75;7.65;;;;;;;14.08;100.00;100954.34;5318855;28;20027;-67
2023/08/04 01:10:15;;;;;;;17.42;7.40;;;;;;;14.02;100.00;100949.56;5311650;28;20051;-67
2023/08/04 01:13:06;;;;;;;14.30;8.45;;;;;;;13.89;100.00;100961.34;5313204;28;20035;-67
2023/08/04 01:15:38;;;;;;;19.35;8.00;;;;;;;13.80;100.00;100962.16;5315915;28;20503;-67
2023/08/04 01:18:09;;;;;;;16.80;8.18;;;;;;;13.96;100.00;100956.31;5317249;28;20020;-67
2023/08/04 01:20:40;;;;;;;17.83;8.85;;;;;;;13.86;100.00;100958.94;5315647;28;20091;-67
2023/08/04 01:23:12;;;;;;;16.42;8.70;;;;;;;13.97;100.00;100962.50;5317778;28;20372;-67
2023/08/04 01:25:43;;;;;;;19.25;8.88;;;;;;;13.81;100.00;100953.16;5316913;28;20032;-68
2023/08/04 01:28:16;;;;;;;16.17;8.52;;;;;;;13.84;100.00;100963.59;5313353;28;20037;-68
2023/08/04 01:30:52;;;;;;;16.57;8.57;;;;;;;13.85;100.00;100965.28;5320493;28;20031;-67
2023/08/04 01:33:24;;;;;;;20.42;9.35;;;;;;;13.87;100.00;100967.84;5315473;27;21408;-68
2023/08/04 01:35:55;;;;;;;13.50;8.02;;;;;;;13.96;100.00;100963.47;5318174;28;20038;-68
2023/08/04 01:38:26;;;;;;;20.23;8.88;;;;;;;13.87;100.00;100970.53;5311535;28;20038;-67
2023/08/04 01:40:58;;;;;;;16.52;9.25;;;;;;;13.81;100.00;100979.97;5315386;28;20088;-68
2023/08/04 01:43:29;;;;;;;17.13;8.63;;;;;;;13.86;100.00;100979.56;5319488;28;20389;-67
2023/08/04 01:46:00;;;;;;;15.32;8.50;;;;;;;13.85;100.00;100970.66;5319623;28;20072;-67
2023/08/04 01:48:32;;;;;;;20.63;8.55;;;;;;;13.86;100.00;100980.38;5317365;28;20023;-67
2023/08/04 01:51:03;;;;;;;15.07;8.50;;;;;;;13.99;100.00;100972.13;5315122;28;20019;-67
2023/08/04 01:53:34;;;;;;;16.88;8.80;;;;;;;13.95;100.00;100976.06;5319359;28;20028;-67
2023/08/04 01:56:05;;;;;;;17.13;9.30;;;;;;;14.08;100.00;100978.50;5318628;27;20047;-67
2023/08/04 01:58:37;;;;;;;15.32;8.52;;;;;;;13.98;100.00;100986.53;5317268;28;20023;-68
2023/08/04 02:01:08;;;;;;;16.33;9.10;;;;;;;13.96;100.00;100987.63;5319045;28;20538;-67
2023/08/04 02:03:39;;;;;;;17.58;9.02;;;;;;;13.92;100.00;100979.00;5309874;28;20469;-67
2023/08/04 02:06:11;;;;;;;15.85;8.15;;;;;;;13.93;100.00;100983.41;5315036;28;20053;-67
2023/08/04 02:08:42;;;;;;;16.85;8.95;;;;;;;13.85;100.00;100980.56;5316673;28;20039;-67
2023/08/04 02:11:13;;;;;;;16.35;8.50;;;;;;;13.89;100.00;100984.66;5316187;28;20023;-67
2023/08/04 02:13:45;;;;;;;16.42;9.13;;;;;;;14.03;100.00;100988.78;5308300;28;20327;-67
2023/08/04 02:16:16;;;;;;;19.58;9.13;;;;;;;13.90;100.00;100986.34;5319978;28;20514;-67
2023/08/04 02:18:48;;;;;;;15.63;8.98;;;;;;;14.05;100.00;100993.03;5316081;28;20105;-67
2023/08/04 02:21:20;;;;;;;16.73;8.93;;;;;;;14.15;100.00;100992.22;5312784;28;20489;-67
2023/08/04 02:23:51;;;;;;;18.40;9.30;;;;;;;14.17;100.00;100990.22;5318535;28;20102;-68
2023/08/04 02:26:23;;;;;;;16.42;8.43;;;;;;;14.14;100.00;100994.06;5316823;28;20043;-67
2023/08/04 02:28:55;;;;;;;15.93;8.20;;;;;;;14.25;100.00;100993.09;5310320;28;20078;-67
2023/08/04 02:31:28;;;;;;;18.80;9.23;;;;;;;14.01;100.00;100991.59;5302166;28;20117;-67
2023/08/04 02:34:00;;;;;;;16.00;7.90;;;;;;;13.87;100.00;100994.66;5309309;28;20342;-67
2023/08/04 02:36:31;;;;;;;16.00;8.45;;;;;;;13.88;100.00;100999.91;5319178;28;20370;-67
2023/08/04 02:39:03;;;;;;;16.40;8.98;;;;;;;13.85;100.00;100996.66;5315636;28;20058;-67
2023/08/04 02:41:34;;;;;;;19.45;8.80;;;;;;;13.88;100.00;100997.22;5318941;28;20043;-67
2023/08/04 02:44:06;;;;;;;17.98;8.98;;;;;;;13.87;100.00;101002.72;5305124;28;20058;-67
2023/08/04 02:46:37;;;;;;;16.45;9.27;;;;;;;13.82;100.00;101004.94;5308767;28;20554;-67
2023/08/04 02:49:08;;;;;;;17.48;8.30;;;;;;;13.87;100.00;101005.41;5317592;28;20027;-67
2023/08/04 02:51:40;;;;;;;16.13;8.23;;;;;;;13.77;100.00;101000.00;5317715;28;20115;-67
2023/08/04 02:54:11;;;;;;;16.33;9.27;;;;;;;13.79;100.00;100995.34;5319240;28;20427;-67
2023/08/04 02:56:42;;;;;;;18.05;8.43;;;;;;;13.83;100.00;101002.13;5316128;28;20030;-67
2023/08/04 02:59:14;;;;;;;15.05;7.57;;;;;;;13.79;100.00;100989.13;5314891;28;20031;-68
2023/08/04 03:01:45;;;;;;;15.13;8.35;;;;;;;13.84;100.00;100994.94;5317081;28;20256;-68
2023/08/04 03:04:16;;;;;;;15.10;8.50;;;;;;;13.84;100.00;100994.94;5311844;28;20508;-67
2023/08/04 03:06:48;;;;;;;15.25;8.32;;;;;;;13.86;100.00;100991.13;5313862;28;20032;-67
2023/08/04 03:09:19;;;;;;;15.25;9.20;;;;;;;13.88;100.00;100999.91;5303233;28;20113;-67
2023/08/04 03:11:50;;;;;;;15.15;8.70;;;;;;;13.85;100.00;101004.69;5314283;28;20463;-67
2023/08/04 03:14:22;;;;;;;19.35;9.27;;;;;;;13.88;100.00;101004.41;5312719;28;20020;-67
2023/08/04 03:16:53;;;;;;;15.82;8.43;;;;;;;13.85;100.00;101002.00;5310958;28;20027;-67
2023/08/04 03:19:24;;;;;;;15.45;8.82;;;;;;;13.89;100.00;101003.44;5304281;28;20038;-67
2023/08/04 03:21:55;;;;;;;15.30;9.10;;;;;;;13.79;100.00;101014.13;5311806;28;20028;-67
2023/08/04 03:24:29;;;;;;;13.88;8.57;;;;;;;13.71;100.00;101009.44;5318885;28;20031;-67
2023/08/04 03:27:01;;;;;;;14.75;8.70;;;;;;;13.84;100.00;101016.38;5315962;28;20568;-67
2023/08/04 03:29:32;;;;;;;16.60;8.32;;;;;;;13.85;100.00;101018.94;5312941;28;20027;-67
2023/08/04 03:32:04;;;;;;;14.60;8.18;;;;;;;13.83;100.00;101018.22;5314488;28;20032;-67
2023/08/04 03:34:35;;;;;;;15.93;9.55;;;;;;;13.85;100.00;101012.75;5308906;28;20497;-67
2023/08/04 03:37:06;;;;;;;13.32;8.77;;;;;;;13.90;100.00;101023.88;5321160;28;20028;-68
2023/08/04 03:39:38;;;;;;;14.75;8.18;;;;;;;13.89;100.00;101024.88;5321338;28;20028;-67
2023/08/04 03:42:09;;;;;;;17.50;8.73;;;;;;;13.92;100.00;101027.28;5315535;28;20024;-67
2023/08/04 03:44:40;;;;;;;17.33;8.95;;;;;;;13.78;100.00;101017.78;5306155;28;20499;-67
2023/08/04 03:47:12;;;;;;;15.75;8.48;;;;;;;13.78;100.00;101017.78;5306720;28;20019;-67
2023/08/04 03:49:43;;;;;;;15.95;8.85;;;;;;;13.80;100.00;101017.66;5320258;28;20174;-67
2023/08/04 03:52:14;;;;;;;17.23;8.05;;;;;;;13.83;100.00;101020.91;5314290;28;20565;-67
2023/08/04 03:54:46;;;;;;;16.13;8.30;;;;;;;13.97;100.00;101032.25;5319668;28;20028;-67
2023/08/04 03:57:17;;;;;;;15.15;8.45;;;;;;;14.00;100.00;101027.47;5319286;28;20019;-67
2023/08/04 03:59:51;;;;;;;15.40;8.27;;;;;;;13.95;100.00;101024.34;5328200;27;20120;-67
2023/08/04 04:02:22;;;;;;;16.08;8.60;;;;;;;13.96;100.00;101027.88;5317930;28;20405;-67
2023/08/04 04:04:53;;;;;;;18.98;8.27;;;;;;;13.85;100.00;101026.16;5319575;28;20030;-67
2023/08/04 04:07:25;;;;;;;12.40;8.25;;;;;;;13.96;100.00;101030.56;5320722;28;20069;-67
2023/08/04 04:09:56;;;;;;;15.68;8.45;;;;;;;13.93;100.00;101037.88;5321188;28;20059;-67
2023/08/04 04:12:27;;;;;;;17.35;8.85;;;;;;;13.86;100.00;101031.34;5320891;28;20390;-68
2023/08/04 04:14:59;;;;;;;15.18;8.07;;;;;;;13.75;100.00;101028.78;5320888;28;20020;-67
2023/08/04 04:17:30;;;;;;;16.05;8.40;;;;;;;13.91;100.00;101030.97;5318604;28;20508;-67
2023/08/04 04:20:02;;;;;;;12.68;7.80;;;;;;;13.64;100.00;101031.53;5312805;28;20094;-67
2023/08/04 04:22:34;;;;;;;14.40;7.78;;;;;;;14.02;100.00;101035.41;5316788;28;20019;-68
2023/08/04 04:25:05;;;;;;;15.00;8.55;;;;;;;13.77;100.00;101039.34;5320172;28;20031;-67
2023/08/04 04:27:37;;;;;;;13.10;8.32;;;;;;;13.71;100.00;101046.09;5312296;28;20034;-67
2023/08/04 04:30:08;;;;;;;13.63;7.57;;;;;;;13.60;100.00;101041.69;5319782;28;20106;-67
2023/08/04 04:32:39;;;;;;;12.70;8.18;;;;;;;13.68;100.00;101049.91;5329533;27;20031;-68
2023/08/04 04:35:11;;;;;;;12.35;7.93;;;;;;;13.75;100.00;101050.25;5322754;27;20385;-67
2023/08/04 04:37:42;;;;;;;14.82;8.75;;;;;;;13.56;100.00;101045.63;5315220;28;20035;-68
2023/08/04 04:40:13;;;;;;;18.38;8.63;;;;;;;13.51;100.00;101053.19;5319500;28;20047;-67
2023/08/04 04:42:45;;;;;;;14.65;8.68;;;;;;;13.52;100.00;101047.69;5322191;28;20032;-67
2023/08/04 04:45:16;;;;;;;17.85;9.82;;;;;;;13.59;100.00;101050.69;5315957;28;20039;-67
2023/08/04 04:47:47;;;;;;;19.48;10.00;;;;;;;13.49;100.00;101047.94;5311037;28;20039;-68
2023/08/04 04:50:19;;;;;;;18.70;8.93;;;;;;;13.50;100.00;101055.03;5318091;28;20035;-67
2023/08/04 04:52:51;;;;;;;19.10;9.13;;;;;;;13.57;100.00;101054.50;5312745;28;20081;-67
2023/08/04 04:55:23;;;;;;;14.90;8.68;;;;;;;13.57;100.00;101059.84;5318988;28;20026;-68
2023/08/04 04:57:54;;;;;;;16.13;9.27;;;;;;;13.52;100.00;101061.09;5315189;27;20026;-66
2023/08/04 05:00:25;;;;;;;17.17;8.15;;;;;;;13.72;100.00;101066.59;5319209;27;20224;-67
2023/08/04 05:02:57;;;;;;;18.60;9.27;;;;;;;13.65;100.00;101073.44;5312029;28;20044;-67
2023/08/04 05:05:28;;;;;;;15.48;9.35;;;;;;;13.56;100.00;101075.09;5320978;28;20034;-67
2023/08/04 05:08:00;;;;;;;14.95;8.40;;;;;;;13.57;100.00;101081.31;5318127;28;20039;-67
2023/08/04 05:10:31;;;;;;;14.38;8.10;;;;;;;13.60;100.00;101083.75;5318928;28;20088;-67
2023/08/04 05:13:02;;;;;;;18.63;9.48;;;;;;;13.73;100.00;101077.19;5319441;28;20043;-67
2023/08/04 05:15:34;;;;;;;18.35;9.65;;;;;;;13.71;100.00;101081.81;5320875;28;20511;-67
2023/08/04 05:18:05;;;;;;;15.93;8.57;;;;;;;13.77;100.00;101088.50;5320829;28;20035;-67
2023/08/04 05:20:36;;;;;;;15.20;9.40;;;;;;;13.93;100.00;101088.00;5319677;28;20036;-67
2023/08/04 05:23:08;;;;;;;17.63;9.73;;;;;;;13.97;100.00;101096.66;5309942;28;20043;-67
2023/08/04 05:25:42;;;;;;;15.38;8.63;;;;;;;14.06;100.00;101104.75;5317648;28;20434;-67
2023/08/04 05:28:23;;;;;;;17.58;9.80;;;;;;;14.12;100.00;101104.19;5319387;28;20019;-67
2023/08/04 05:30:57;;;;;;;20.45;10.48;;;;;;;14.23;100.00;101108.63;5319678;28;20028;-67
2023/08/04 05:33:30;;;;;;;18.40;9.75;;;;;;;14.24;100.00;101107.63;5316827;28;20020;-67
2023/08/04 05:36:02;;;;;;;17.73;9.98;;;;;;;14.31;100.00;101108.81;5319974;28;20122;-67
2023/08/04 05:38:33;;;;;;;15.77;9.48;;;;;;;14.35;100.00;101112.06;5306053;28;20106;-67
2023/08/04 05:41:05;;;;;;;15.95;9.52;;;;;;;14.55;100.00;101106.75;5315741;28;20027;-67
2023/08/04 05:43:36;;;;;;;17.42;9.82;;;;;;;14.52;100.00;101102.53;5318216;28;21022;-67
2023/08/04 05:46:07;;;;;;;20.02;9.45;;;;;;;14.61;100.00;101103.56;5316848;28;20026;-67
2023/08/04 05:48:39;;;;;;;18.67;10.27;;;;;;;14.71;100.00;101101.75;5317751;28;20019;-67
2023/08/04 05:51:10;;;;;;;19.67;10.10;;;;;;;14.69;100.00;101109.94;5312237;28;20019;-67
2023/08/04 05:53:43;;;;;;;16.05;9.90;;;;;;;14.81;100.00;101112.53;5319556;28;20114;-67
2023/08/04 05:56:14;;;;;;;16.48;9.25;;;;;;;14.86;100.00;101121.00;5317973;28;20091;-67
2023/08/04 05:58:45;;;;;;;19.40;9.85;;;;;;;14.97;100.00;101120.03;5318665;28;20063;-67
2023/08/04 06:01:17;;;;;;;19.90;9.60;;;;;;;15.00;100.00;101119.75;5324665;27;20046;-67
2023/08/04 06:03:48;;;;;;;16.88;9.70;;;;;;;15.05;100.00;101123.75;5319316;27;20193;-67
2023/08/04 06:06:20;;;;;;;17.38;8.93;;;;;;;15.12;100.00;101131.22;5319623;28;20031;-67
2023/08/04 06:08:52;;;;;;;21.83;10.13;;;;;;;15.15;100.00;101126.44;5316908;28;20051;-67
2023/08/04 06:11:23;;;;;;;18.23;10.40;;;;;;;15.23;100.00;101133.78;5318648;28;20470;-67
2023/08/04 06:13:54;;;;;;;15.95;9.82;;;;;;;15.28;100.00;101123.44;5310252;28;20430;-67
2023/08/04 06:16:26;;;;;;;16.00;10.02;;;;;;;15.29;100.00;101130.53;5318122;28;20348;-67
2023/08/04 06:18:58;;;;;;;16.73;9.38;;;;;;;15.34;100.00;101132.78;5312998;28;20155;-67
2023/08/04 06:21:35;;;;;;;18.95;9.82;;;;;;;15.42;100.00;101139.16;5318847;28;20491;-67
2023/08/04 06:24:06;;;;;;;16.75;9.63;;;;;;;15.42;100.00;101136.47;5314667;28;20482;-68
2023/08/04 06:26:38;;;;;;;19.27;10.35;;;;;;;15.57;100.00;101141.41;5310719;28;20362;-67
2023/08/04 06:29:09;;;;;;;18.02;10.13;;;;;;;15.60;100.00;101152.72;5309704;28;20020;-67
2023/08/04 06:31:40;;;;;;;16.83;9.68;;;;;;;15.79;100.00;101157.28;5305514;28;20059;-68
2023/08/04 06:34:12;;;;;;;18.27;8.95;;;;;;;15.88;100.00;101155.59;5311383;28;20030;-67
2023/08/04 06:36:47;;;;;;;16.65;8.70;;;;;;;16.04;100.00;101157.66;5310304;28;20031;-68
2023/08/04 06:39:18;;;;;;;14.98;9.02;;;;;;;16.14;100.00;101163.03;5315608;27;20051;-67
2023/08/04 06:41:50;;;;;;;15.27;8.93;;;;;;;16.26;100.00;101161.84;5316380;28;20102;-67
2023/08/04 06:44:21;;;;;;;16.27;8.80;;;;;;;16.42;100.00;101155.84;5312997;28;20054;-68
2023/08/04 06:46:53;;;;;;;13.50;8.75;;;;;;;16.56;100.00;101159.88;5319143;28;20027;-67
2023/08/04 06:49:24;;;;;;;14.15;7.90;;;;;;;16.65;100.00;101159.00;5311531;28;20491;-68
2023/08/04 06:51:55;;;;;;;16.33;8.27;;;;;;;16.78;100.00;101162.19;5315656;28;20040;-68
2023/08/04 06:54:27;;;;;;;12.38;8.18;;;;;;;16.87;100.00;101157.75;5317339;28;20038;-68
2023/08/04 06:56:58;;;;;;;12.88;8.07;;;;;;;16.98;100.00;101167.50;5318443;28;20042;-68
2023/08/04 06:59:29;;;;;;;12.18;7.15;;;;;;;16.97;100.00;101169.34;5319943;28;20586;-68
2023/08/04 07:02:01;;;;;;;13.48;7.20;;;;;;;17.07;100.00;101171.13;5310303;28;20466;-68
2023/08/04 07:04:32;;;;;;;12.50;6.80;;;;;;;17.08;100.00;101165.59;5309394;28;20038;-68
2023/08/04 07:07:04;;;;;;;13.15;7.32;;;;;;;17.18;100.00;101171.78;5318009;28;20035;-67
2023/08/04 07:09:36;;;;;;;15.25;7.15;;;;;;;17.21;100.00;101170.63;5317324;28;20529;-68
2023/08/04 07:12:07;;;;;;;11.95;7.03;;;;;;;17.31;100.00;101170.53;5314226;28;20030;-68
2023/08/04 07:14:39;;;;;;;14.18;6.88;;;;;;;17.37;100.00;101180.72;5319543;28;20114;-68
2023/08/04 07:17:10;;;;;;;11.93;7.15;;;;;;;17.42;100.00;101181.94;5320201;28;20027;-68
2023/08/04 07:19:41;;;;;;;11.75;7.30;;;;;;;17.41;100.00;101180.25;5320649;27;20112;-68
2023/08/04 07:22:13;;;;;;;10.80;5.95;;;;;;;17.47;100.00;101181.50;5322544;28;20099;-68
2023/08/04 07:24:46;;;;;;;11.02;6.35;;;;;;;17.51;100.00;101182.00;5321395;28;20051;-68
2023/08/04 07:27:18;;;;;;;7.60;5.32;;;;;;;17.56;100.00;101179.72;5326329;27;20542;-68
2023/08/04 07:29:50;;;;;;;10.90;5.35;;;;;;;17.64;100.00;101182.47;5325936;27;20019;-68
2023/08/04 07:32:21;;;;;;;8.73;4.72;;;;;;;17.73;100.00;101180.69;5320984;28;20027;-68
2023/08/04 07:34:52;;;;;;;8.30;4.55;;;;;;;17.74;100.00;101175.16;5322317;28;20562;-68
2023/08/04 07:37:24;;;;;;;7.20;4.40;;;;;;;17.71;100.00;101171.91;5320848;28;20032;-68
2023/08/04 07:39:55;;;;;;;9.70;4.70;;;;;;;17.79;100.00;101182.75;5322493;28;20032;-68
2023/08/04 07:42:26;;;;;;;9.93;4.30;;;;;;;17.79;100.00;101180.06;5321216;28;20051;-68
2023/08/04 07:44:58;;;;;;;10.98;4.30;;;;;;;17.75;100.00;101187.63;5317572;28;20031;-68
2023/08/04 07:47:29;;;;;;;9.20;4.20;;;;;;;17.78;100.00;101189.19;5319935;28;20023;-68
2023/08/04 07:50:01;;;;;;;11.10;4.40;;;;;;;17.78;100.00;101190.03;5314623;28;20466;-68
2023/08/04 07:52:32;;;;;;;7.95;3.97;;;;;;;17.75;100.00;101190.31;5309785;28;20099;-68
2023/08/04 07:55:04;;;;;;;7.97;4.00;;;;;;;17.74;100.00;101191.34;5314338;28;20021;-68
2023/08/04 07:57:35;;;;;;;8.73;3.97;;;;;;;17.77;100.00;101193.72;5310847;28;20040;-68
2023/08/04 08:00:07;;;;;;;7.93;3.25;;;;;;;17.76;100.00;101199.28;5314815;27;20054;-68
2023/08/04 08:02:38;;;;;;;6.13;2.97;;;;;;;17.77;100.00;101192.88;5321464;28;20417;-68
2023/08/04 08:05:10;;;;;;;6.10;2.85;;;;;;;17.72;100.00;101196.06;5314872;28;20110;-68
2023/08/04 08:07:41;;;;;;;7.90;3.00;;;;;;;17.74;100.00;101194.03;5317762;28;20568;-69
2023/08/04 08:10:13;;;;;;;7.53;3.08;;;;;;;17.73;100.00;101196.91;5317175;28;20047;-68
2023/08/04 08:12:44;;;;;;;7.53;3.20;;;;;;;17.83;100.00;101205.75;5316434;28;20020;-69
2023/08/04 08:15:15;;;;;;;7.28;3.22;;;;;;;17.85;100.00;101198.38;5320462;28;20059;-68
2023/08/04 08:17:47;;;;;;;6.65;2.97;;;;;;;17.87;100.00;101193.66;5313908;27;20031;-68
2023/08/04 08:20:18;;;;;;;7.90;2.70;;;;;;;17.79;100.00;101197.09;5320645;28;20055;-68
2023/08/04 08:22:49;;;;;;;6.20;2.30;;;;;;;17.77;100.00;101193.72;5305915;28;20023;-69
2023/08/04 08:25:21;;;;;;;5.38;2.10;;;;;;;17.88;100.00;101197.22;5290170;28;20032;-68
2023/08/04 08:27:52;;;;;;;3.67;1.98;;;;;;;18.10;100.00;101203.97;5312071;28;20035;-69
2023/08/04 08:30:24;;;;;;;7.60;2.45;;;;;;;18.33;100.00;101209.69;5319607;28;20393;-69
2023/08/04 08:32:55;;;;;;;5.05;2.00;;;;;;;18.34;100.00;101203.28;5317659;28;20424;-69
2023/08/04 08:35:27;;;;;;;6.10;2.15;;;;;;;18.53;100.00;101205.75;5314949;28;20454;-69
2023/08/04 08:37:58;;;;;;;4.97;2.33;;;;;;;18.62;100.00;101203.97;5318681;28;20033;-69
2023/08/04 08:40:29;;;;;;;4.85;3.08;;;;;;;18.58;100.00;101214.25;5318757;28;20117;-69
2023/08/04 08:43:01;;;;;;;7.03;2.70;;;;;;;18.61;100.00;101210.34;5318639;28;20100;-69
2023/08/04 08:45:34;;;;;;;4.97;2.65;;;;;;;18.52;100.00;101217.56;5310530;28;20105;-69
2023/08/04 08:48:06;;;;;;;5.30;2.72;;;;;;;18.47;100.00;101214.50;5310788;27;20051;-69
2023/08/04 08:50:39;;;;;;;6.93;2.63;;;;;;;18.42;100.00;101227.63;5312077;28;20016;-69
2023/08/04 08:53:15;;;;;;;7.90;3.20;;;;;;;18.43;100.00;101229.34;5324535;27;20028;-69
2023/08/04 08:55:47;;;;;;;6.13;2.60;;;;;;;18.45;100.00;101223.75;5320305;28;20166;-69
2023/08/04 08:58:19;;;;;;;6.10;3.08;;;;;;;18.44;100.00;101231.03;5319380;28;20047;-69
2023/08/04 09:00:51;;;;;;;5.70;3.05;;;;;;;18.50;100.00;101211.47;5315079;28;20042;-69
2023/08/04 09:03:23;;;;;;;5.38;2.20;;;;;;;18.69;100.00;101221.19;5311702;28;20032;-69
2023/08/04 09:05:55;;;;;;;5.18;2.70;;;;;;;18.73;100.00;101227.13;5321774;27;20038;-68
2023/08/04 09:08:27;;;;;;;5.93;2.22;;;;;;;18.77;100.00;101220.38;5313053;27;20035;-69
2023/08/04 09:10:59;;;;;;;5.35;2.28;;;;;;;18.82;100.00;101225.34;5314486;28;21355;-69
2023/08/04 09:13:30;;;;;;;5.95;2.70;;;;;;;18.70;100.00;101227.47;5315885;28;20029;-69
2023/08/04 09:16:03;;;;;;;5.03;2.22;;;;;;;18.81;100.00;101235.31;5316799;28;20072;-69
2023/08/04 09:18:38;;;;;;;7.07;3.20;;;;;;;18.53;100.00;101251.69;5323716;27;20020;-67
2023/08/04 09:21:12;;;;;;;8.00;3.45;;;;;;;18.34;100.00;101254.63;5307980;28;20035;-67
2023/08/04 09:23:47;;;;;;;5.90;3.00;;;;;;;18.19;100.00;101260.56;5313190;28;20032;-66
2023/08/04 09:26:19;;;;;;;5.38;2.60;;;;;;;18.04;100.00;101262.13;5314217;28;20473;-66
2023/08/04 09:29:05;;;;;;;7.25;2.85;;;;;;;18.09;100.00;101267.09;5301652;28;20089;-66
2023/08/04 09:31:41;;;;;;;5.18;2.90;;;;;;;18.12;100.00;101274.84;5317078;28;20167;-66
2023/08/04 09:34:12;;;;;;;6.40;3.15;;;;;;;18.14;100.00;101270.16;5310702;28;20118;-66
2023/08/04 09:36:46;;;;;;;5.45;2.88;;;;;;;18.13;100.00;101274.72;5317362;28;20119;-66
2023/08/04 09:39:17;;;;;;;5.40;2.65;;;;;;;18.19;100.00;101265.97;5309428;28;20026;-66
2023/08/04 09:41:49;;;;;;;4.75;2.92;;;;;;;18.30;100.00;101272.97;5303185;28;20023;-66
2023/08/04 09:44:20;;;;;;;4.47;2.92;;;;;;;18.32;100.00;101268.28;5310550;28;20035;-67
2023/08/04 09:46:53;;;;;;;5.03;2.80;;;;;;;18.35;100.00;101267.09;5314881;28;20051;-67
2023/08/04 09:49:25;;;;;;;7.80;3.65;;;;;;;18.51;100.00;101267.22;5304315;28;20123;-67
2023/08/04 09:51:56;;;;;;;7.13;3.72;;;;;;;18.61;100.00;101269.81;5323822;27;20109;-67
2023/08/04 09:54:28;;;;;;;5.80;3.20;;;;;;;18.72;100.00;101263.28;5319522;28;20065;-67
2023/08/04 09:56:59;;;;;;;5.97;2.90;;;;;;;18.80;100.00;101260.66;5319346;28;20028;-67
2023/08/04 09:59:31;;;;;;;7.07;3.38;;;;;;;18.87;100.00;101253.59;5317949;28;20434;-67
2023/08/04 10:02:02;;;;;;;7.53;3.53;;;;;;;18.97;100.00;101259.72;5315864;28;20167;-67
2023/08/04 10:04:34;;;;;;;5.38;2.90;;;;;;;18.98;100.00;101264.13;5317384;28;20127;-66
2023/08/04 10:07:08;;;;;;;7.38;2.63;;;;;;;19.11;100.00;101265.53;5316427;28;20030;-67
2023/08/04 10:09:40;;;;;;;6.35;2.55;;;;;;;19.08;100.00;101255.03;5317934;28;20088;-67
2023/08/04 10:12:13;;;;;;;4.97;1.90;;;;;;;19.08;100.00;101263.13;5311238;28;20019;-67
2023/08/04 10:14:44;;;;;;;6.03;1.90;;;;;;;18.97;100.00;101269.72;5319601;28;20023;-66
2023/08/04 10:17:18;;;;;;;4.20;1.80;;;;;;;18.79;100.00;101275.13;5315047;28;20118;-66
2023/08/04 10:20:00;;;;;;;7.07;2.15;;;;;;;18.78;100.00;101276.16;5314795;28;20028;-65
2023/08/04 10:22:32;;;;;;;4.55;1.90;;;;;;;18.63;100.00;101270.50;5315200;28;20538;-66
2023/08/04 10:25:15;;;;;;;4.15;1.92;;;;;;;18.57;100.00;101274.69;5319030;28;20019;-66
2023/08/04 10:27:48;;;;;;;6.78;2.10;;;;;;;18.47;100.00;101276.66;5319910;28;20024;-67
2023/08/04 10:30:20;;;;;;;7.87;2.60;;;;;;;18.43;100.00;101267.19;5315815;28;20478;-65
2023/08/04 10:32:51;;;;;;;4.65;2.40;;;;;;;18.52;100.00;101268.06;5317174;28;20302;-66
2023/08/04 10:35:23;;;;;;;6.50;2.38;;;;;;;18.67;100.00;101273.72;5305859;28;20267;-66
2023/08/04 10:37:59;;;;;;;6.95;2.63;;;;;;;18.90;100.00;101277.59;5319032;28;20500;-66
2023/08/04 10:40:32;;;;;;;6.57;2.03;;;;;;;18.93;100.00;101277.28;5319303;28;20032;-66
2023/08/04 10:43:05;;;;;;;7.88;2.17;;;;;;;19.04;100.00;101275.28;5317553;28;20027;-66
2023/08/04 10:45:53;;;;;;;5.22;2.25;;;;;;;19.21;100.00;101285.16;5318348;28;20023;-66
2023/08/04 10:48:26;;;;;;;5.57;1.85;;;;;;;19.25;100.00;101275.72;5317070;28;20031;-66
2023/08/04 10:50:57;;;;;;;5.30;1.75;;;;;;;19.24;100.00;101276.75;5317618;28;20050;-67
2023/08/04 10:53:29;;;;;;;8.20;2.40;;;;;;;19.35;100.00;101281.84;5317753;28;20028;-66
2023/08/04 10:56:05;;;;;;;5.30;1.80;;;;;;;19.32;100.00;101287.59;5318142;28;20024;-66
2023/08/04 10:58:38;;;;;;;6.20;2.05;;;;;;;19.14;100.00;101274.16;5312220;28;20027;-67
2023/08/04 11:01:15;;;;;;;4.85;1.80;;;;;;;19.11;100.00;101281.75;5310072;28;20031;-67
2023/08/04 11:03:48;;;;;;;4.45;1.60;;;;;;;19.03;100.00;101279.88;5317403;28;20020;-67
2023/08/04 11:06:20;;;;;;;5.03;1.40;;;;;;;19.02;100.00;101269.22;5312672;28;20028;-68
2023/08/04 11:08:52;;;;;;;5.53;2.05;;;;;;;19.12;100.00;101273.50;5316479;28;20051;-67
2023/08/04 11:11:23;;;;;;;5.30;2.00;;;;;;;19.19;100.00;101287.19;5312570;28;20020;-67
2023/08/04 11:13:56;;;;;;;4.28;1.63;;;;;;;19.20;100.00;101288.91;5314879;28;20034;-67
2023/08/04 11:16:30;;;;;;;4.50;1.75;;;;;;;19.20;100.00;101288.91;5317327;28;20028;-67
2023/08/04 11:19:08;;;;;;;3.45;1.00;;;;;;;19.22;100.00;101294.16;5308153;28;20055;-67
2023/08/04 11:21:39;;;;;;;3.55;1.17;;;;;;;19.05;100.00;101294.06;5310034;28;20035;-67
2023/08/04 11:24:11;;;;;;;3.28;1.30;;;;;;;18.97;100.00;101303.00;5318870;28;20116;-67
2023/08/04 11:26:42;;;;;;;3.17;1.30;;;;;;;18.92;100.00;101312.59;5299929;28;20478;-67
2023/08/04 11:29:14;;;;;;;3.20;1.20;;;;;;;18.84;100.00;101315.25;5307095;28;20473;-67
2023/08/04 11:31:47;;;;;;;3.90;1.23;;;;;;;18.75;100.00;101306.22;5315521;28;20023;-67
2023/08/04 11:34:18;;;;;;;3.90;1.70;;;;;;;18.70;100.00;101319.38;5306536;28;20474;-67